createdAt,value
2018-04-21T00:03:35.440Z,66.6
2018-04-21T00:08:35.425Z,67.2
2018-04-21T00:13:35.671Z,67.7
2018-04-21T00:18:35.417Z,67.1
2018-04-21T00:23:35.597Z,67.7
2018-04-21T00:28:35.647Z,70.5
2018-04-21T00:33:40.359Z,70.4
2018-04-21T00:38:40.224Z,69.6
2018-04-21T00:43:53.760Z,70.3
2018-04-21T00:48:53.712Z,70.1
2018-04-21T00:53:53.727Z,70.6
2018-04-21T00:58:53.485Z,70.3
2018-04-21T01:03:53.711Z,71.4
2018-04-21T01:08:53.644Z,70.7
2018-04-21T01:13:53.661Z,71.3
2018-04-21T01:18:54.137Z,70.6
2018-04-21T01:23:56.687Z,71.4
2018-04-21T01:29:06.819Z,72.5
2018-04-21T01:34:06.710Z,71.2
2018-04-21T01:39:06.744Z,72.1
2018-04-21T01:44:06.539Z,72.6
2018-04-21T01:49:06.695Z,73.2
2018-04-21T01:54:06.560Z,74
2018-04-21T01:59:06.544Z,73.7
2018-04-21T02:04:06.701Z,73.3
2018-04-21T02:09:06.771Z,74.1
2018-04-21T02:14:06.693Z,72.7
2018-04-21T02:19:06.820Z,74.8
2018-04-21T02:24:06.730Z,74
2018-04-21T02:29:09.238Z,74.3
2018-04-21T02:34:09.170Z,74.3
2018-04-21T02:39:21.009Z,75
2018-04-21T02:44:20.900Z,74
2018-04-21T02:49:20.923Z,73.7
2018-04-21T02:54:20.730Z,73.9
2018-04-21T02:59:20.900Z,76
2018-04-21T03:04:20.922Z,76.4
2018-04-21T03:09:20.834Z,75.5
2018-04-21T03:14:22.169Z,75.9
2018-04-21T03:19:22.111Z,75.3
2018-04-21T03:24:34.841Z,76.2
2018-04-21T03:29:34.818Z,77.1
2018-04-21T03:34:34.747Z,76.4
2018-04-21T03:39:34.791Z,76.4
2018-04-21T03:44:34.673Z,76.5
2018-04-21T03:49:35.064Z,77.6
2018-04-21T03:54:35.008Z,77.1
2018-04-21T03:59:34.928Z,76.3
2018-04-21T04:04:34.791Z,77.1
2018-04-21T04:09:34.786Z,77.9
2018-04-21T04:14:35.035Z,77.2
2018-04-21T04:19:34.804Z,77.1
2018-04-21T04:24:35.003Z,77
2018-04-21T04:29:35.013Z,76.8
2018-04-21T04:34:48.198Z,76.6
2018-04-21T04:39:48.053Z,77.5
2018-04-21T04:44:47.960Z,76.8
2018-04-21T04:49:49.090Z,76.7
2018-04-21T04:54:47.958Z,76.7
2018-04-21T04:59:47.933Z,77.2
2018-04-21T05:04:48.075Z,77.2
2018-04-21T05:09:49.044Z,77.3
2018-04-21T05:14:48.722Z,75.7
2018-04-21T05:20:01.720Z,75.3
2018-04-21T05:25:01.660Z,74.1
2018-04-21T05:30:01.704Z,74.6
2018-04-21T05:35:01.585Z,73.9
2018-04-21T05:40:01.632Z,73.3
2018-04-21T05:45:01.460Z,72.6
2018-04-21T05:50:01.736Z,72.6
2018-04-21T05:55:01.481Z,70.8
2018-04-21T06:00:01.629Z,69.5
2018-04-21T06:05:01.683Z,68.5
2018-04-21T06:10:01.629Z,69
2018-04-21T06:15:01.479Z,69.4
2018-04-21T06:20:02.012Z,67
2018-04-21T06:25:01.699Z,66.5
2018-04-21T06:30:16.326Z,67.6
2018-04-21T06:35:16.042Z,65.8
2018-04-21T06:40:16.259Z,62.9
2018-04-21T06:45:16.180Z,61
2018-04-21T06:50:16.212Z,59.6
2018-04-21T06:55:16.070Z,59.8
2018-04-21T07:00:16.051Z,58.5
2018-04-21T07:05:16.783Z,58.8
2018-04-21T07:10:16.550Z,58.5
2018-04-21T07:15:28.811Z,56.9
2018-04-21T07:20:28.720Z,54.2
2018-04-21T07:25:29.807Z,55.8
2018-04-21T07:30:28.798Z,54.5
2018-04-21T07:35:28.591Z,52.3
2018-04-21T07:40:28.724Z,50.1
2018-04-21T07:45:28.602Z,50.7
2018-04-21T07:50:28.877Z,50
2018-04-21T07:55:28.601Z,49.3
2018-04-21T08:00:41.951Z,49.9
2018-04-21T08:05:41.746Z,49.4
2018-04-21T08:10:41.555Z,48.8
2018-04-21T08:15:41.761Z,47.2
2018-04-21T08:20:41.740Z,47.7
2018-04-21T08:25:41.772Z,46.6
2018-04-21T08:30:41.796Z,47.3
2018-04-21T08:35:43.225Z,45.9
2018-04-21T08:40:43.112Z,45.7
2018-04-21T08:45:55.448Z,47.2
2018-04-21T08:50:55.333Z,46.7
2018-04-21T08:55:55.380Z,46.8
2018-04-21T09:00:55.302Z,42.4
2018-04-21T09:05:55.345Z,43.9
2018-04-21T09:10:55.386Z,40.5
2018-04-21T09:15:55.416Z,39.8
2018-04-21T09:20:55.144Z,41.2
2018-04-21T09:25:55.429Z,41
2018-04-21T09:31:08.470Z,42.1
2018-04-21T09:36:08.145Z,39.9
2018-04-21T09:41:08.298Z,41.7
2018-04-21T09:46:08.328Z,40.7
2018-04-21T09:51:08.336Z,40.3
2018-04-21T09:56:08.192Z,41
2018-04-21T10:01:08.454Z,41
2018-04-21T10:06:09.362Z,39.7
2018-04-21T10:11:09.275Z,39.7
2018-04-21T10:16:22.300Z,39.8
2018-04-21T10:21:22.055Z,38.3
2018-04-21T10:26:22.126Z,38.9
2018-04-21T10:31:22.210Z,38.2
2018-04-21T10:36:22.414Z,37.5
2018-04-21T10:41:22.241Z,37.1
2018-04-21T10:46:22.301Z,36.8
2018-04-21T10:51:22.481Z,36.9
2018-04-21T10:56:22.411Z,37.3
2018-04-21T11:01:22.410Z,37.7
2018-04-21T11:06:22.233Z,35.5
2018-04-21T11:11:22.417Z,35.4
2018-04-21T11:16:25.848Z,36.1
2018-04-21T11:21:25.594Z,35.8
2018-04-21T11:26:38.691Z,36
2018-04-21T11:31:38.607Z,35.3
2018-04-21T11:36:38.513Z,36
2018-04-21T11:41:38.597Z,35.5
2018-04-21T11:46:38.556Z,36.3
2018-04-21T11:51:38.666Z,34.8
2018-04-21T11:56:38.570Z,34.6
2018-04-21T12:01:39.778Z,34.6
2018-04-21T12:06:39.483Z,34.2
2018-04-21T12:11:52.414Z,33.2
2018-04-21T12:16:52.393Z,33.4
2018-04-21T12:21:52.379Z,33.3
2018-04-21T12:26:52.625Z,33
2018-04-21T12:31:52.426Z,33.3
2018-04-21T12:36:52.408Z,34.2
2018-04-21T12:41:52.552Z,34.3
2018-04-21T12:46:52.547Z,32.8
2018-04-21T12:51:52.453Z,33.2
2018-04-21T12:56:52.607Z,33.1
2018-04-21T13:01:52.438Z,33.2
2018-04-21T13:06:52.565Z,33.8
2018-04-21T13:11:56.363Z,32.3
2018-04-21T13:16:56.214Z,33.1
2018-04-21T13:22:07.123Z,32.5
2018-04-21T13:27:07.081Z,32.5
2018-04-21T13:32:06.980Z,32.6
2018-04-21T13:37:07.008Z,32
2018-04-21T13:42:07.020Z,32.3
2018-04-21T13:47:06.866Z,32.2
2018-04-21T13:52:06.875Z,32.9
2018-04-21T13:57:07.086Z,31.7
2018-04-21T14:02:07.098Z,30.4
2018-04-21T14:07:07.151Z,31
2018-04-21T14:12:06.887Z,31.2
2018-04-21T14:17:07.162Z,30.7
2018-04-21T14:22:08.795Z,30.2
2018-04-21T14:27:08.499Z,31
2018-04-21T14:32:20.945Z,31.4
2018-04-21T14:37:20.676Z,30.9
2018-04-21T14:42:20.895Z,30.2
2018-04-21T14:47:20.700Z,30.6
2018-04-21T14:52:20.841Z,31
2018-04-21T14:57:20.688Z,31.8
2018-04-21T15:02:20.691Z,29.7
2018-04-21T15:07:22.024Z,31.4
2018-04-21T15:12:21.930Z,30.4
2018-04-21T15:17:35.981Z,31.1
2018-04-21T15:22:35.927Z,31
2018-04-21T15:27:35.717Z,31.2
2018-04-21T15:32:35.849Z,30.6
2018-04-21T15:37:35.942Z,30.9
2018-04-21T15:42:37.894Z,32.2
2018-04-21T15:47:37.851Z,32.1
2018-04-21T15:52:37.716Z,31.7
2018-04-21T15:57:37.750Z,31.9
2018-04-21T16:02:37.828Z,32.1
2018-04-21T16:07:37.858Z,31.5
2018-04-21T16:12:37.771Z,31.9
2018-04-21T16:17:38.903Z,32
2018-04-21T16:22:38.754Z,31.3
2018-04-21T16:27:52.011Z,32.8
2018-04-21T16:32:51.748Z,33.1
2018-04-21T16:37:52.004Z,33.5
2018-04-21T16:42:51.908Z,33.9
2018-04-21T16:47:51.782Z,34.3
2018-04-21T16:52:52.005Z,34.4
2018-04-21T16:57:51.897Z,35.1
2018-04-21T17:02:51.874Z,36.1
2018-04-21T17:07:51.967Z,36.4
2018-04-21T17:12:52.123Z,37
2018-04-21T17:17:51.960Z,38.1
2018-04-21T17:22:52.084Z,38.3
2018-04-21T17:27:52.359Z,40
2018-04-21T17:32:52.154Z,39.8
2018-04-21T17:37:52.275Z,40.9
2018-04-21T17:42:52.206Z,41.4
2018-04-21T17:47:52.143Z,42
2018-04-21T17:52:53.138Z,42.8
2018-04-21T17:57:53.028Z,44.2
2018-04-21T18:03:05.991Z,45
2018-04-21T18:08:05.925Z,45.8
2018-04-21T18:13:05.738Z,46.5
2018-04-21T18:18:05.977Z,46
2018-04-21T18:23:06.107Z,47.3
2018-04-21T18:28:09.043Z,48.6
2018-04-21T18:33:06.174Z,50.2
2018-04-21T18:38:11.084Z,51.2
2018-04-21T18:43:10.757Z,51.3
2018-04-21T18:48:23.997Z,52
2018-04-21T18:53:23.935Z,53.2
2018-04-21T18:58:23.844Z,52.7
2018-04-21T19:03:23.750Z,53.2
2018-04-21T19:08:23.930Z,53.8
2018-04-21T19:13:24.713Z,55
2018-04-21T19:18:24.971Z,54.5
2018-04-21T19:23:27.474Z,55.3
2018-04-21T19:28:27.338Z,55.7
2018-04-21T19:33:40.810Z,56
2018-04-21T19:38:40.616Z,55.9
2018-04-21T19:43:40.559Z,56.3
2018-04-21T19:48:40.462Z,58
2018-04-21T19:53:40.520Z,58.4
2018-04-21T19:58:40.577Z,58.1
2018-04-21T20:03:40.596Z,59
2018-04-21T20:08:42.012Z,59
2018-04-21T20:13:41.203Z,59.9
2018-04-21T20:18:53.891Z,60.6
2018-04-21T20:23:53.622Z,60.2
2018-04-21T20:28:53.637Z,60.8
2018-04-21T20:33:53.668Z,60.7
2018-04-21T20:38:53.742Z,61.2
2018-04-21T20:43:53.855Z,62.3
2018-04-21T20:53:57.253Z,61.9
2018-04-21T20:58:56.973Z,60.9
2018-04-21T21:04:07.873Z,61.2
2018-04-21T21:09:07.566Z,61.5
2018-04-21T21:14:07.531Z,61.3
2018-04-21T21:19:07.748Z,61
2018-04-21T21:24:07.876Z,61.7
2018-04-21T21:29:07.762Z,61.7
2018-04-21T21:34:07.742Z,61.8
2018-04-21T21:39:07.747Z,61.9
2018-04-21T21:44:07.742Z,62.3
2018-04-21T21:49:07.732Z,62.2
2018-04-21T21:54:07.957Z,62.5
2018-04-21T21:59:07.734Z,63
2018-04-21T22:04:08.405Z,62
2018-04-21T22:09:08.066Z,62.2
2018-04-21T22:14:23.442Z,61.7
2018-04-21T22:19:23.379Z,62.1
2018-04-21T22:24:23.222Z,61.8
2018-04-21T22:29:23.178Z,56.1
2018-04-21T22:34:23.192Z,57.4
2018-04-21T22:39:23.887Z,58.7
2018-04-21T22:44:23.886Z,58.5
2018-04-21T22:49:25.105Z,59.3
2018-04-21T22:54:24.762Z,61.1
2018-04-21T22:59:37.142Z,61.6
2018-04-21T23:04:37.105Z,62.1
2018-04-21T23:09:36.866Z,63.4
2018-04-21T23:14:37.078Z,63.7
2018-04-21T23:19:36.905Z,65.4
2018-04-21T23:24:36.904Z,65.2
2018-04-21T23:29:37.085Z,65.2
2018-04-21T23:34:37.012Z,66.2
2018-04-21T23:39:36.989Z,65.9
2018-04-21T23:44:51.435Z,67.6
2018-04-21T23:49:51.329Z,66.3
2018-04-21T23:54:51.376Z,66.5
2018-04-21T23:59:51.286Z,67.6
